Time;durP1;ratioP1;P1;durP2;ratioP2;P2;SDS_P1;SDS_P2;PMS_P1;PMS_P2;Temp;Humidity;BMP_temperature;BMP_pressure;BME280_temperature;BME280_humidity;BME280_pressure;Samples;Min_cycle;Max_cycle;Signal;HPM_P1;HPM_P2
2022/03/14 00:01:04;;;;;;;4.75;2.35;;;;;;;8.68;38.89;101250.72;4947899;29;20039;-60
2022/03/14 00:06:36;;;;;;;5.97;1.95;;;;;;;8.57;38.04;101249.53;4927095;29;20051;-61
2022/03/14 00:09:07;;;;;;;4.20;2.17;;;;;;;8.63;38.58;101246.31;4950948;29;20044;-62
2022/03/14 00:11:35;;;;;;;7.43;2.35;;;;;;;8.56;38.83;101254.13;4951114;29;20418;-62
2022/03/14 00:14:04;;;;;;;4.93;2.00;;;;;;;8.54;38.82;101253.66;4952567;28;20475;-59
2022/03/14 00:16:47;;;;;;;4.00;2.13;;;;;;;8.47;39.39;101257.97;4923186;29;20050;-62
2022/03/14 00:19:20;;;;;;;6.55;2.38;;;;;;;8.52;38.80;101255.09;4952547;29;20035;-61
2022/03/14 00:22:19;;;;;;;3.65;2.08;;;;;;;8.47;39.23;101263.34;4952846;29;20039;-62
2022/03/14 00:24:46;;;;;;;7.25;2.45;;;;;;;8.46;38.72;101261.78;4950474;28;20089;-62
2022/03/14 00:27:12;;;;;;;6.60;2.45;;;;;;;8.45;38.80;101270.94;4953418;28;20087;-63
2022/03/14 00:29:40;;;;;;;4.80;2.00;;;;;;;8.44;38.85;101269.38;4955136;28;20069;-63
2022/03/14 00:32:09;;;;;;;5.10;1.95;;;;;;;8.46;38.59;101264.47;4923453;29;20038;-62
2022/03/14 00:34:35;;;;;;;5.82;2.30;;;;;;;8.53;38.85;101268.22;4929696;29;20046;-63
2022/03/14 00:37:03;;;;;;;4.63;2.15;;;;;;;8.54;38.42;101264.41;4952016;28;20027;-60
2022/03/14 00:39:31;;;;;;;5.40;2.40;;;;;;;8.40;39.15;101269.22;4952469;29;20052;-59
2022/03/14 00:42:03;;;;;;;5.35;1.50;;;;;;;8.48;38.66;101259.56;4952635;29;20387;-60
2022/03/14 00:44:31;;;;;;;4.95;2.22;;;;;;;8.36;38.83;101262.94;4947926;28;20069;-61
2022/03/14 00:46:57;;;;;;;5.13;2.47;;;;;;;8.40;38.66;101271.88;4948408;29;20285;-59
2022/03/14 00:49:25;;;;;;;3.13;1.95;;;;;;;8.33;38.82;101268.94;4950750;29;20419;-60
2022/03/14 00:51:53;;;;;;;5.32;2.17;;;;;;;8.27;39.89;101264.88;4951116;28;20035;-63
2022/03/14 00:54:18;;;;;;;4.95;1.95;;;;;;;8.26;39.05;101271.34;4934475;29;20027;-62
2022/03/14 00:56:50;;;;;;;3.65;2.00;;;;;;;8.29;39.16;101265.34;4951227;29;20099;-60
2022/03/14 00:59:20;;;;;;;4.32;1.70;;;;;;;8.13;39.27;101264.28;4949349;28;20130;-60
2022/03/14 01:01:49;;;;;;;5.13;2.08;;;;;;;8.01;39.51;101259.59;4950426;29;20039;-63
2022/03/14 01:04:17;;;;;;;4.07;1.77;;;;;;;8.01;39.66;101267.63;4930721;29;20039;-61
2022/03/14 01:06:43;;;;;;;6.15;1.80;;;;;;;8.07;39.48;101271.72;4944368;29;20122;-59
2022/03/14 01:09:14;;;;;;;3.40;1.92;;;;;;;8.07;39.17;101265.59;4939290;29;20498;-62
2022/03/14 01:11:46;;;;;;;6.95;2.22;;;;;;;8.00;39.52;101274.13;4952035;29;20067;-64
2022/03/14 01:14:15;;;;;;;4.43;2.08;;;;;;;7.97;39.95;101266.72;4939483;29;20239;-62
2022/03/14 01:16:43;;;;;;;3.95;2.35;;;;;;;7.95;40.00;101273.50;4952231;29;20042;-62
2022/03/14 01:19:12;;;;;;;3.15;1.85;;;;;;;8.06;39.81;101285.44;4932034;29;20487;-61
2022/03/14 01:21:41;;;;;;;4.85;2.25;;;;;;;8.02;39.59;101288.00;4950834;28;20122;-60
2022/03/14 01:24:07;;;;;;;4.28;1.70;;;;;;;7.84;39.60;101291.06;4950573;29;20178;-63
2022/03/14 01:26:39;;;;;;;5.03;1.95;;;;;;;7.87;39.91;101287.72;4947342;28;20031;-63
2022/03/14 01:29:06;;;;;;;4.50;2.25;;;;;;;7.80;39.81;101288.22;4949821;29;20515;-60
2022/03/14 01:31:34;;;;;;;5.15;1.88;;;;;;;7.83;40.10;101289.47;4951420;29;20023;-61
2022/03/14 01:34:02;;;;;;;6.47;1.95;;;;;;;7.87;39.90;101285.84;4949882;28;20542;-62
2022/03/14 01:36:31;;;;;;;5.13;2.15;;;;;;;7.87;39.77;101287.72;4951360;28;20034;-62
2022/03/14 01:39:00;;;;;;;3.75;1.92;;;;;;;7.86;39.29;101286.94;4947562;29;20141;-62
2022/03/14 01:41:29;;;;;;;4.82;2.05;;;;;;;7.79;39.78;101291.22;4951650;29;20499;-62
2022/03/14 01:44:05;;;;;;;3.95;1.83;;;;;;;7.85;40.09;101288.06;4950741;28;20035;-61
2022/03/14 01:46:34;;;;;;;6.28;1.88;;;;;;;7.76;40.16;101286.50;4950502;28;20031;-62
2022/03/14 01:49:05;;;;;;;3.10;2.08;;;;;;;7.78;40.08;101292.34;4933039;29;20082;-62
2022/03/14 01:51:34;;;;;;;3.35;1.83;;;;;;;7.74;40.47;101286.81;4949862;28;20031;-63
2022/03/14 01:54:05;;;;;;;4.28;1.83;;;;;;;7.66;40.64;101287.66;4941106;29;20107;-62
2022/03/14 01:56:35;;;;;;;3.78;1.85;;;;;;;7.60;40.14;101294.28;4949737;29;20042;-62
2022/03/14 01:59:01;;;;;;;3.35;1.80;;;;;;;7.69;40.00;101291.56;4950788;29;20086;-63
2022/03/14 02:01:32;;;;;;;3.17;1.48;;;;;;;7.70;40.55;101299.31;4950461;28;20387;-63
2022/03/14 02:04:02;;;;;;;7.43;2.53;;;;;;;7.73;40.14;101301.34;4951670;28;20043;-60
2022/03/14 02:06:28;;;;;;;5.13;1.95;;;;;;;7.61;40.81;101289.69;4946399;29;20027;-63
2022/03/14 02:08:56;;;;;;;6.32;2.20;;;;;;;7.64;40.32;101289.06;4949491;29;20085;-61
2022/03/14 02:11:21;;;;;;;4.68;2.40;;;;;;;7.65;40.21;101286.06;4951108;29;20023;-62
2022/03/14 02:13:50;;;;;;;4.70;2.08;;;;;;;7.59;40.30;101279.28;4950535;29;20030;-63
2022/03/14 02:16:17;;;;;;;3.67;1.92;;;;;;;7.50;40.81;101272.38;4951820;29;20398;-63
2022/03/14 02:18:46;;;;;;;2.67;1.80;;;;;;;7.52;41.30;101273.63;4933521;29;20398;-62
2022/03/14 02:21:13;;;;;;;3.58;2.10;;;;;;;7.53;40.46;101283.22;4950281;28;20035;-61
2022/03/14 02:23:41;;;;;;;3.80;1.80;;;;;;;7.52;41.12;101281.69;4948277;29;20398;-57
2022/03/14 02:26:12;;;;;;;3.30;2.15;;;;;;;7.54;40.40;101284.81;4933919;29;20034;-57
2022/03/14 02:28:38;;;;;;;5.30;1.73;;;;;;;7.44;40.29;101277.13;4950340;29;20090;-56
2022/03/14 02:31:06;;;;;;;3.08;1.77;;;;;;;7.49;40.76;101284.97;4935451;29;20042;-62
2022/03/14 02:33:32;;;;;;;3.95;2.25;;;;;;;7.53;40.35;101285.16;4934071;29;20058;-63
2022/03/14 02:35:58;;;;;;;4.90;2.08;;;;;;;7.52;40.85;101286.25;4933347;29;20039;-62
2022/03/14 02:38:28;;;;;;;9.57;1.80;;;;;;;7.34;40.91;101288.16;4946230;28;20039;-62
2022/03/14 02:40:56;;;;;;;6.93;2.25;;;;;;;7.32;40.88;101293.03;4945252;28;20027;-62
2022/03/14 02:43:24;;;;;;;5.30;2.08;;;;;;;7.27;41.31;101295.88;4930017;29;20034;-62
2022/03/14 02:45:52;;;;;;;6.00;1.92;;;;;;;7.34;41.57;101295.44;4948060;29;20064;-63
2022/03/14 02:48:19;;;;;;;6.13;2.38;;;;;;;7.29;41.75;101294.47;4949845;29;20501;-62
2022/03/14 02:50:51;;;;;;;2.33;1.63;;;;;;;7.27;41.95;101295.88;4950744;29;20115;-63
2022/03/14 02:53:21;;;;;;;5.25;2.03;;;;;;;7.24;41.56;101299.97;4946077;28;20031;-62
2022/03/14 02:55:49;;;;;;;4.70;2.30;;;;;;;7.22;41.49;101301.38;4953162;29;20042;-62
2022/03/14 02:58:15;;;;;;;5.22;2.15;;;;;;;7.22;42.24;101302.19;4953901;29;20035;-60
2022/03/14 03:00:41;;;;;;;3.63;2.08;;;;;;;7.22;41.71;101310.22;4951373;28;20035;-61
2022/03/14 03:03:10;;;;;;;6.47;1.90;;;;;;;7.15;42.41;101306.44;4951990;28;20108;-61
2022/03/14 03:05:43;;;;;;;3.55;1.92;;;;;;;7.18;42.47;101303.16;4952855;29;20102;-63
2022/03/14 03:08:14;;;;;;;7.20;2.40;;;;;;;7.11;41.43;101306.28;4953643;29;20528;-61
2022/03/14 03:10:42;;;;;;;6.05;2.28;;;;;;;7.12;41.96;101318.56;4953610;29;20039;-60
2022/03/14 03:13:10;;;;;;;8.65;1.98;;;;;;;7.11;41.98;101311.66;4952967;28;20037;-59
2022/03/14 03:15:37;;;;;;;6.88;2.10;;;;;;;7.05;41.79;101309.44;4953286;29;20035;-60
2022/03/14 03:18:04;;;;;;;5.22;2.83;;;;;;;7.03;41.81;101317.00;4953149;29;20538;-63
2022/03/14 03:20:32;;;;;;;11.40;2.30;;;;;;;7.10;41.54;101311.97;4956479;28;20256;-59
2022/03/14 03:23:05;;;;;;;4.10;2.17;;;;;;;7.08;41.73;101309.59;4951881;29;20035;-61
2022/03/14 03:25:34;;;;;;;6.80;2.70;;;;;;;7.06;41.80;101314.50;4935661;29;20055;-62
2022/03/14 03:28:03;;;;;;;3.45;2.08;;;;;;;7.03;42.08;101309.75;4953313;29;20047;-61
2022/03/14 03:30:31;;;;;;;5.70;2.20;;;;;;;6.88;41.94;101309.41;4970876;28;20038;-60
2022/03/14 03:32:59;;;;;;;4.10;2.08;;;;;;;6.88;42.49;101315.56;4954009;28;20046;-62
2022/03/14 03:35:25;;;;;;;5.03;2.00;;;;;;;6.89;42.06;101316.38;4929218;29;20031;-61
2022/03/14 03:37:51;;;;;;;5.00;2.38;;;;;;;6.91;42.21;101317.59;4951307;29;20050;-59
2022/03/14 03:40:16;;;;;;;4.00;2.13;;;;;;;6.84;42.08;101314.63;4950990;28;20039;-61
2022/03/14 03:42:57;;;;;;;5.32;2.22;;;;;;;6.83;42.44;101318.38;4935870;29;20094;-62
2022/03/14 03:45:26;;;;;;;7.05;2.42;;;;;;;6.86;42.65;101322.31;4953682;29;20506;-59
2022/03/14 03:47:53;;;;;;;7.60;2.63;;;;;;;6.81;43.12;101328.63;4936237;29;20035;-61
2022/03/14 03:50:22;;;;;;;8.13;2.42;;;;;;;6.81;43.03;101333.19;4955097;28;20462;-61
2022/03/14 03:52:50;;;;;;;7.15;3.15;;;;;;;6.75;43.08;101329.88;4950845;29;20031;-59
2022/03/14 03:55:17;;;;;;;4.50;2.30;;;;;;;6.72;43.25;101338.53;4952332;29;20038;-59
2022/03/14 03:57:50;;;;;;;5.35;2.67;;;;;;;6.60;43.22;101346.34;4953396;29;20387;-60
2022/03/14 04:00:16;;;;;;;3.30;2.22;;;;;;;6.57;44.07;101333.59;4930296;29;20180;-63
2022/03/14 04:02:44;;;;;;;7.25;2.95;;;;;;;6.56;44.09;101348.09;4951610;29;20102;-61
2022/03/14 04:05:20;;;;;;;3.97;2.90;;;;;;;6.57;43.51;101347.00;4952491;28;20031;-61
2022/03/14 04:07:58;;;;;;;4.57;2.47;;;;;;;6.53;43.85;101346.03;4950094;28;20106;-59
2022/03/14 04:10:28;;;;;;;6.57;2.65;;;;;;;6.46;43.90;101340.34;4950355;29;20093;-58
2022/03/14 04:12:57;;;;;;;5.10;2.25;;;;;;;6.42;43.80;101342.06;4948198;28;20030;-62
2022/03/14 04:15:23;;;;;;;5.78;1.98;;;;;;;6.35;43.27;101339.81;4945616;28;20086;-60
2022/03/14 04:17:53;;;;;;;5.05;2.45;;;;;;;6.46;42.73;101344.91;4948083;28;20039;-61
2022/03/14 04:20:22;;;;;;;4.70;2.03;;;;;;;6.34;43.19;101351.63;4952173;29;20089;-56
2022/03/14 04:22:50;;;;;;;6.35;2.63;;;;;;;6.35;43.52;101361.22;4948293;28;20030;-62
2022/03/14 04:25:16;;;;;;;3.47;1.80;;;;;;;6.39;43.67;101356.84;4950571;29;20031;-62
2022/03/14 04:27:51;;;;;;;6.43;2.75;;;;;;;6.42;43.33;101365.34;4952635;29;20556;-63
2022/03/14 04:30:32;;;;;;;3.03;1.48;;;;;;;6.41;43.52;101366.44;4951388;28;20031;-61
2022/03/14 04:33:00;;;;;;;5.30;2.13;;;;;;;6.42;43.02;101365.34;4921549;29;20176;-62
2022/03/14 04:35:35;;;;;;;5.13;2.30;;;;;;;6.27;43.44;101358.53;4946874;29;21213;-62
2022/03/14 04:38:05;;;;;;;8.85;2.30;;;;;;;6.26;43.74;101357.72;4947665;29;20109;-61
2022/03/14 04:40:32;;;;;;;5.53;2.80;;;;;;;6.20;44.26;101358.97;4949758;28;20031;-60
2022/03/14 04:43:18;;;;;;;5.25;2.42;;;;;;;6.23;43.96;101352.22;4931227;29;20031;-61
2022/03/14 04:45:48;;;;;;;4.95;2.13;;;;;;;6.14;44.34;101354.84;4950090;29;20043;-62
2022/03/14 04:48:16;;;;;;;4.30;2.05;;;;;;;6.12;44.60;101353.56;4948886;29;20043;-61
2022/03/14 04:50:45;;;;;;;4.45;2.03;;;;;;;6.14;44.88;101359.38;4941907;28;20311;-61
2022/03/14 04:53:17;;;;;;;6.10;2.63;;;;;;;6.15;44.33;101356.44;4931892;29;20098;-60
2022/03/14 04:55:44;;;;;;;10.80;2.85;;;;;;;6.16;43.76;101358.00;4950039;29;20035;-63
2022/03/14 04:58:17;;;;;;;9.15;2.50;;;;;;;6.11;44.47;101366.16;4947499;28;20039;-62
2022/03/14 05:00:43;;;;;;;6.70;2.50;;;;;;;6.13;44.33;101365.84;4950740;29;20038;-62
2022/03/14 05:03:34;;;;;;;5.13;2.17;;;;;;;6.11;44.36;101374.19;4947455;28;20050;-61
2022/03/14 05:06:02;;;;;;;6.78;2.50;;;;;;;6.05;44.59;101362.03;4936986;28;20126;-60
2022/03/14 05:08:31;;;;;;;5.70;2.65;;;;;;;6.01;44.89;101365.63;4943536;28;20347;-64
2022/03/14 05:11:00;;;;;;;9.20;2.97;;;;;;;5.97;44.61;101380.69;4950704;29;20553;-62
2022/03/14 05:13:28;;;;;;;6.28;2.55;;;;;;;5.95;44.66;101378.31;4950343;28;20430;-62
2022/03/14 05:15:54;;;;;;;5.82;2.70;;;;;;;5.90;44.64;101372.31;4929889;29;20063;-60
2022/03/14 05:18:22;;;;;;;7.40;2.53;;;;;;;5.95;44.70;101378.31;4932761;29;20085;-63
2022/03/14 05:20:47;;;;;;;3.80;1.80;;;;;;;5.90;44.76;101381.13;4932783;29;20502;-62
2022/03/14 05:23:13;;;;;;;7.05;2.85;;;;;;;5.96;44.52;101387.13;4952693;28;20034;-60
2022/03/14 05:25:44;;;;;;;6.65;2.67;;;;;;;5.95;44.94;101386.34;4951438;28;20052;-62
2022/03/14 05:28:12;;;;;;;5.95;2.50;;;;;;;5.86;44.73;101382.03;4940145;29;20499;-62
2022/03/14 05:30:42;;;;;;;7.00;3.00;;;;;;;5.84;45.01;101374.34;4950425;29;20042;-64
2022/03/14 05:33:11;;;;;;;5.50;2.63;;;;;;;5.79;45.29;101371.72;4946334;28;20174;-62
2022/03/14 05:35:43;;;;;;;4.45;2.40;;;;;;;5.79;45.23;101384.34;4946833;28;20113;-61
2022/03/14 05:38:11;;;;;;;;;;;;;;;5.75;45.33;101384.13;4943818;29;20039;-60
2022/03/14 05:40:37;;;;;;;6.93;2.30;;;;;;;5.68;46.43;101389.13;4946650;28;19937;-61
2022/03/14 05:43:07;;;;;;;5.63;2.97;;;;;;;5.74;45.31;101397.78;4947843;29;20034;-62
2022/03/14 05:45:36;;;;;;;8.27;2.53;;;;;;;5.66;45.56;101385.16;4947268;29;20178;-61
2022/03/14 05:48:05;;;;;;;6.65;2.28;;;;;;;5.67;45.63;101384.84;4936074;29;20408;-63
2022/03/14 05:50:30;;;;;;;6.68;2.25;;;;;;;5.69;45.80;101389.91;4933071;29;20035;-63
2022/03/14 05:52:59;;;;;;;5.40;2.60;;;;;;;5.67;45.48;101395.53;4950309;29;20521;-63
2022/03/14 05:55:34;;;;;;;9.07;2.30;;;;;;;5.66;45.86;101396.66;4942475;28;20078;-63
2022/03/14 05:58:15;;;;;;;8.45;3.05;;;;;;;5.71;45.42;101393.06;4937457;28;20626;-61
2022/03/14 06:00:41;;;;;;;4.40;2.65;;;;;;;5.74;45.76;101392.44;4940167;28;20089;-60
2022/03/14 06:03:07;;;;;;;7.82;2.70;;;;;;;5.70;45.50;101397.63;4946085;29;20064;-60
2022/03/14 06:05:35;;;;;;;6.65;2.92;;;;;;;5.75;45.30;101407.41;4930072;29;20054;-63
2022/03/14 06:08:01;;;;;;;8.85;2.63;;;;;;;5.75;45.05;101404.72;4932407;29;20034;-61
2022/03/14 06:10:27;;;;;;;6.65;2.50;;;;;;;5.77;45.20;101408.66;4945294;28;20039;-61
2022/03/14 06:13:00;;;;;;;5.13;2.17;;;;;;;5.80;44.80;101410.75;4937806;29;20111;-62
2022/03/14 06:15:26;;;;;;;7.93;2.67;;;;;;;5.82;45.43;101399.75;4944903;29;20031;-62
2022/03/14 06:17:56;;;;;;;7.43;2.53;;;;;;;5.77;45.69;101403.31;4942096;29;20488;-63
2022/03/14 06:20:36;;;;;;;;;;;;;;;5.78;45.18;101398.75;4936313;28;20126;-64
2022/03/14 06:23:07;;;;;;;5.65;2.33;;;;;;;5.80;45.23;101402.72;4915599;28;20009;-62
2022/03/14 06:25:32;;;;;;;9.02;2.60;;;;;;;5.79;44.93;101403.81;4936544;28;20041;-62
2022/03/14 06:27:58;;;;;;;6.47;2.70;;;;;;;5.81;45.29;101406.97;4922405;28;20031;-61
2022/03/14 06:30:26;;;;;;;6.32;2.42;;;;;;;5.85;45.48;101415.97;4940948;28;20403;-64
2022/03/14 06:32:57;;;;;;;6.45;2.28;;;;;;;5.94;45.14;101416.06;4933740;28;20042;-63
2022/03/14 06:35:27;;;;;;;6.63;2.93;;;;;;;6.04;45.26;101415.81;4953798;28;20027;-62
2022/03/14 06:37:56;;;;;;;8.27;2.65;;;;;;;5.96;45.01;101411.19;4944093;28;20039;-62
2022/03/14 06:40:27;;;;;;;4.78;2.88;;;;;;;6.01;45.00;101416.41;4946688;29;20554;-63
2022/03/14 06:42:55;;;;;;;11.30;3.92;;;;;;;6.08;44.57;101420.22;4951400;28;20058;-62
2022/03/14 06:45:23;;;;;;;11.13;3.20;;;;;;;6.13;44.11;101422.00;4954475;28;20405;-60
2022/03/14 06:47:52;;;;;;;8.48;2.78;;;;;;;6.20;43.88;101415.09;4952083;28;20121;-62
2022/03/14 06:50:24;;;;;;;4.65;2.22;;;;;;;6.14;44.17;101421.69;4943871;28;20045;-63
2022/03/14 06:52:53;;;;;;;5.03;2.72;;;;;;;6.26;43.58;101426.47;4956111;28;20082;-62
2022/03/14 06:55:18;;;;;;;7.22;2.42;;;;;;;6.26;43.24;101426.47;4959920;28;20046;-62
2022/03/14 06:57:44;;;;;;;3.97;2.20;;;;;;;6.24;44.22;101428.66;4948434;28;20035;-54
2022/03/14 07:00:13;;;;;;;7.03;3.22;;;;;;;6.21;44.32;101439.97;4948808;28;20043;-62
2022/03/14 07:02:42;;;;;;;6.05;2.70;;;;;;;6.35;43.55;101440.66;4952860;28;20042;-62
2022/03/14 07:05:17;;;;;;;7.68;3.50;;;;;;;6.32;43.62;101447.44;4953755;28;20023;-60
2022/03/14 07:08:10;;;;;;;7.32;3.05;;;;;;;6.43;43.53;101447.94;4951720;28;20111;-60
2022/03/14 07:10:38;;;;;;;4.13;2.70;;;;;;;6.61;42.75;101463.00;4950546;28;20375;-63
2022/03/14 07:13:07;;;;;;;5.57;2.30;;;;;;;6.57;42.67;101454.00;4953862;28;20156;-61
2022/03/14 07:15:33;;;;;;;8.20;3.03;;;;;;;6.63;43.09;101452.78;4967607;28;20034;-61
2022/03/14 07:18:01;;;;;;;9.75;2.17;;;;;;;6.68;43.45;101451.88;4947598;29;20031;-63
2022/03/14 07:20:37;;;;;;;9.00;3.40;;;;;;;6.81;43.41;101449.09;4960312;28;20445;-63
2022/03/14 07:23:06;;;;;;;7.95;2.78;;;;;;;6.88;42.88;101449.41;4937618;29;20495;-59
2022/03/14 07:25:41;;;;;;;4.00;2.50;;;;;;;7.05;42.36;101459.38;4955156;28;20514;-62
2022/03/14 07:28:09;;;;;;;9.18;3.00;;;;;;;7.18;42.34;101448.53;4955048;28;20035;-62
2022/03/14 07:30:42;;;;;;;7.47;3.00;;;;;;;7.24;41.74;101446.50;4952193;28;20126;-59
2022/03/14 07:33:15;;;;;;;5.82;2.33;;;;;;;7.33;42.68;101452.69;4954672;28;20035;-59
2022/03/14 07:35:44;;;;;;;7.50;3.35;;;;;;;7.56;41.96;101456.81;4952937;28;20133;-57
2022/03/14 07:38:12;;;;;;;7.15;2.97;;;;;;;7.68;41.46;101464.22;4950135;28;20093;-61
2022/03/14 07:40:55;;;;;;;7.97;3.42;;;;;;;7.76;41.72;101468.81;4946704;28;20042;-59
2022/03/14 07:43:31;;;;;;;8.60;3.30;;;;;;;7.91;41.52;101468.31;4937415;28;20043;-62
2022/03/14 07:45:59;;;;;;;9.82;3.63;;;;;;;8.02;42.34;101475.72;4955385;28;20089;-62
2022/03/14 07:48:25;;;;;;;6.95;3.17;;;;;;;8.13;41.21;101473.50;4948075;28;20039;-62
2022/03/14 07:50:52;;;;;;;6.10;3.10;;;;;;;8.18;41.03;101474.13;4951766;28;20058;-63
2022/03/14 07:53:39;;;;;;;9.85;3.38;;;;;;;8.27;41.17;101471.47;4951814;28;20042;-60
2022/03/14 07:56:20;;;;;;;;;;;;;;;8.22;40.75;101466.25;4901825;29;20039;-61
2022/03/14 07:58:45;;;;;;;7.10;3.03;;;;;;;8.25;40.60;101476.34;4902421;29;19959;-61
2022/03/14 08:01:11;;;;;;;7.88;3.33;;;;;;;8.42;40.25;101484.38;4891037;29;20032;-60
2022/03/14 08:03:36;;;;;;;9.23;3.67;;;;;;;8.63;41.23;101477.19;4881633;29;20456;-64
2022/03/14 08:06:02;;;;;;;7.60;2.88;;;;;;;8.87;40.11;101477.44;4895751;29;20513;-61
2022/03/14 08:08:28;;;;;;;10.27;3.00;;;;;;;9.03;39.77;101481.16;4886173;29;20105;-60
2022/03/14 08:10:54;;;;;;;8.75;3.63;;;;;;;9.09;39.49;101479.06;4878999;29;20032;-61
2022/03/14 08:13:20;;;;;;;9.40;4.18;;;;;;;9.18;39.89;101481.69;4889591;29;20038;-61
2022/03/14 08:15:46;;;;;;;9.65;3.95;;;;;;;9.34;40.08;101478.16;4883465;29;20033;-60
2022/03/14 08:18:13;;;;;;;8.27;3.60;;;;;;;9.42;38.90;101488.06;4889986;29;20056;-62
2022/03/14 08:20:39;;;;;;;5.78;3.15;;;;;;;9.64;39.01;101495.03;4897695;29;20447;-61
2022/03/14 08:23:07;;;;;;;9.85;3.92;;;;;;;9.59;39.05;101497.91;4894031;29;20048;-61
2022/03/14 08:25:36;;;;;;;8.82;3.38;;;;;;;9.70;38.66;101502.56;4888941;29;20028;-61
2022/03/14 08:28:03;;;;;;;10.65;3.63;;;;;;;9.85;39.09;101511.97;4889348;29;20101;-61
2022/03/14 08:30:28;;;;;;;10.35;3.47;;;;;;;9.93;38.40;101508.41;4896450;29;20040;-59
2022/03/14 08:32:55;;;;;;;7.72;3.42;;;;;;;9.97;37.47;101514.69;4892987;29;20040;-60
2022/03/14 08:35:22;;;;;;;5.43;3.08;;;;;;;10.18;37.06;101512.81;4881595;29;20044;-61
2022/03/14 08:37:50;;;;;;;9.15;3.25;;;;;;;10.27;37.03;101518.13;4876607;29;20096;-61
2022/03/14 08:40:18;;;;;;;6.15;3.30;;;;;;;10.35;36.26;101518.06;4888009;29;20103;-57
2022/03/14 08:42:45;;;;;;;9.10;3.63;;;;;;;10.30;36.65;101512.84;4893618;29;20032;-59
2022/03/14 08:45:12;;;;;;;7.25;3.45;;;;;;;10.49;36.91;101521.22;4889534;29;20071;-61
2022/03/14 08:47:38;;;;;;;8.30;3.47;;;;;;;10.55;36.82;101514.50;4895882;29;20500;-61
2022/03/14 08:50:05;;;;;;;6.75;2.95;;;;;;;10.67;37.28;101517.22;4894716;29;20034;-60
2022/03/14 08:52:31;;;;;;;7.85;3.17;;;;;;;10.80;37.08;101521.53;4886711;29;20044;-58
2022/03/14 08:54:57;;;;;;;8.23;3.72;;;;;;;11.00;36.79;101514.47;4886171;29;20037;-61
2022/03/14 08:57:25;;;;;;;7.80;3.15;;;;;;;11.09;36.05;101519.78;4860245;29;20418;-60
2022/03/14 08:59:51;;;;;;;10.43;3.63;;;;;;;11.14;36.13;101524.94;4891436;29;20047;-58
2022/03/14 09:02:16;;;;;;;6.93;3.35;;;;;;;11.25;36.04;101517.94;4875384;29;20401;-62
2022/03/14 09:04:44;;;;;;;10.80;3.35;;;;;;;11.46;35.84;101515.91;4888377;29;20113;-60
2022/03/14 09:07:10;;;;;;;9.30;3.53;;;;;;;11.57;35.53;101528.63;4885955;29;20051;-59
2022/03/14 09:09:36;;;;;;;6.60;3.15;;;;;;;11.70;34.67;101534.81;4866307;29;20105;-56
2022/03/14 09:12:02;;;;;;;6.72;3.58;;;;;;;11.94;34.59;101534.75;4888048;29;20045;-59
2022/03/14 09:14:29;;;;;;;7.78;3.28;;;;;;;11.96;34.89;101529.03;4890413;29;20045;-59
2022/03/14 09:16:54;;;;;;;7.63;3.22;;;;;;;11.94;35.43;101536.66;4893510;29;20184;-60
2022/03/14 09:19:20;;;;;;;9.40;3.08;;;;;;;12.06;34.94;101545.50;4880830;29;20071;-58
2022/03/14 09:21:47;;;;;;;10.38;3.50;;;;;;;11.86;35.15;101541.06;4889076;29;20033;-60
2022/03/14 09:24:16;;;;;;;6.53;3.25;;;;;;;12.03;35.78;101540.00;4882319;29;20036;-60
2022/03/14 09:26:42;;;;;;;9.40;3.30;;;;;;;12.26;35.49;101541.06;4877883;29;20120;-58
2022/03/14 09:29:08;;;;;;;7.70;3.63;;;;;;;12.57;34.74;101541.94;4883010;29;20093;-60
2022/03/14 09:31:33;;;;;;;7.43;3.83;;;;;;;12.60;35.09;101543.94;4880448;29;20109;-60
2022/03/14 09:34:00;;;;;;;8.80;3.33;;;;;;;12.96;34.24;101553.75;4879572;29;20496;-60
2022/03/14 09:36:25;;;;;;;9.80;3.25;;;;;;;12.80;33.91;101546.75;4887632;29;20047;-61
2022/03/14 09:38:51;;;;;;;9.65;4.18;;;;;;;12.93;34.58;101550.97;4883614;29;20036;-60
2022/03/14 09:41:18;;;;;;;9.70;3.92;;;;;;;13.17;34.89;101548.09;4885382;29;20468;-61
2022/03/14 09:43:46;;;;;;;8.38;3.28;;;;;;;13.13;35.30;101548.03;4883280;29;20045;-60
2022/03/14 09:46:12;;;;;;;8.95;3.85;;;;;;;13.27;34.93;101556.50;4895118;29;20044;-59
2022/03/14 09:48:46;;;;;;;11.10;3.90;;;;;;;13.30;35.23;101557.69;4891004;29;20040;-60
2022/03/14 09:51:12;;;;;;;7.72;3.22;;;;;;;13.37;34.73;101564.06;4883839;29;20041;-59
2022/03/14 09:53:38;;;;;;;7.13;3.75;;;;;;;13.34;34.45;101559.34;4891990;29;20077;-59
2022/03/14 09:56:04;;;;;;;7.97;4.00;;;;;;;13.17;35.42;101572.44;4884108;29;20524;-60
2022/03/14 09:58:29;;;;;;;7.22;3.53;;;;;;;13.18;36.33;101565.91;4892823;29;20124;-60
2022/03/14 10:00:55;;;;;;;9.60;3.72;;;;;;;13.10;37.27;101572.28;4888614;29;20115;-59
2022/03/14 10:03:22;;;;;;;9.10;4.00;;;;;;;13.05;36.88;101567.13;4880425;29;20511;-60
2022/03/14 10:05:48;;;;;;;7.47;3.33;;;;;;;13.05;36.90;101564.41;4897736;29;20506;-60
2022/03/14 10:08:14;;;;;;;8.95;3.47;;;;;;;13.24;37.37;101572.63;4891042;29;20376;-60
2022/03/14 10:10:41;;;;;;;6.15;3.22;;;;;;;13.04;39.02;101569.06;4883489;29;20036;-60
2022/03/14 10:13:08;;;;;;;6.85;3.30;;;;;;;13.06;38.35;101557.88;4883235;29;20095;-60
2022/03/14 10:15:37;;;;;;;11.13;3.38;;;;;;;13.14;38.58;101559.63;4885654;29;20119;-59
2022/03/14 10:18:15;;;;;;;7.10;3.33;;;;;;;13.04;39.83;101557.44;4879695;29;20052;-58
2022/03/14 10:20:57;;;;;;;6.95;3.28;;;;;;;13.27;39.27;101561.91;4877346;29;20412;-59
2022/03/14 10:23:35;;;;;;;7.97;3.58;;;;;;;13.52;39.67;101565.97;4878435;29;20045;-60
2022/03/14 10:26:02;;;;;;;9.05;3.40;;;;;;;13.37;39.15;101560.56;4880780;29;20455;-60
2022/03/14 10:28:30;;;;;;;6.82;2.85;;;;;;;13.37;39.11;101566.78;4869855;29;20485;-60
2022/03/14 10:30:57;;;;;;;10.32;3.65;;;;;;;13.20;39.28;101567.13;4884091;29;20560;-59
2022/03/14 10:33:23;;;;;;;12.55;3.72;;;;;;;13.14;39.74;101567.75;4890873;29;20058;-59
2022/03/14 10:35:49;;;;;;;7.43;3.53;;;;;;;12.97;40.38;101576.94;4934276;23;20035;-57
2022/03/14 10:38:16;;;;;;;9.32;3.35;;;;;;;12.92;40.45;101579.13;4953800;28;20039;-58
2022/03/14 10:40:46;;;;;;;6.93;3.15;;;;;;;12.79;40.93;101578.41;4956436;28;20050;-59
2022/03/14 10:43:25;;;;;;;7.38;3.38;;;;;;;12.57;42.83;101579.75;4968218;28;20066;-57
2022/03/14 10:45:50;;;;;;;6.93;3.63;;;;;;;12.67;42.60;101584.66;4973253;28;20046;-60
2022/03/14 10:48:16;;;;;;;7.95;3.55;;;;;;;12.59;43.80;101588.31;4965458;28;20031;-59
2022/03/14 10:50:43;;;;;;;9.10;3.40;;;;;;;12.61;43.77;101577.94;4967588;28;20401;-60
2022/03/14 10:53:18;;;;;;;7.32;2.90;;;;;;;12.86;44.07;101581.28;4966290;28;20033;-60
2022/03/14 10:55:46;;;;;;;6.00;2.85;;;;;;;12.93;43.41;101586.09;4982650;28;20027;-59
2022/03/14 10:58:14;;;;;;;8.18;3.15;;;;;;;12.97;42.62;101589.69;4969227;28;20034;-60
2022/03/14 11:00:53;;;;;;;8.85;3.70;;;;;;;12.80;43.08;101584.59;4956539;28;20027;-60
2022/03/14 11:03:25;;;;;;;6.97;3.13;;;;;;;12.88;44.13;101591.75;4960609;28;20066;-60
2022/03/14 11:05:52;;;;;;;6.50;3.03;;;;;;;12.83;45.19;101589.31;4965120;28;20043;-59
2022/03/14 11:08:28;;;;;;;5.95;2.63;;;;;;;12.89;46.44;101591.41;4972795;28;20060;-60
2022/03/14 11:10:55;;;;;;;6.55;3.00;;;;;;;12.90;46.00;101589.50;4959490;28;20048;-60
2022/03/14 11:13:21;;;;;;;9.93;4.07;;;;;;;12.71;46.31;101587.47;4975484;28;20038;-58
2022/03/14 11:15:46;;;;;;;9.60;3.65;;;;;;;12.60;46.21;101592.56;4961351;28;20517;-59
2022/03/14 11:18:13;;;;;;;5.38;3.10;;;;;;;12.65;46.52;101603.16;4968175;28;20066;-60
2022/03/14 11:20:40;;;;;;;6.40;3.25;;;;;;;12.67;46.24;101602.78;4957925;28;20454;-60
2022/03/14 11:23:06;;;;;;;6.38;3.20;;;;;;;12.64;46.76;101608.88;4975569;28;20364;-58
2022/03/14 11:25:33;;;;;;;6.43;3.15;;;;;;;12.66;47.36;101604.69;4973911;28;20049;-58
2022/03/14 11:27:58;;;;;;;7.00;2.80;;;;;;;12.58;47.43;101610.28;4968973;28;20042;-60
2022/03/14 11:30:26;;;;;;;7.90;3.22;;;;;;;12.52;48.04;101606.25;4957432;28;20096;-59
2022/03/14 11:32:52;;;;;;;6.53;3.20;;;;;;;12.46;49.44;101605.72;4968555;28;20058;-58
2022/03/14 11:35:18;;;;;;;6.25;2.88;;;;;;;12.60;49.13;101608.03;4978916;28;20038;-59
2022/03/14 11:37:45;;;;;;;8.05;3.03;;;;;;;12.67;49.39;101603.59;4967570;28;20046;-59
2022/03/14 11:40:12;;;;;;;7.32;3.60;;;;;;;12.67;49.54;101609.00;4961040;28;20045;-59
2022/03/14 11:42:38;;;;;;;9.27;3.83;;;;;;;12.67;49.47;101595.47;4972375;28;20098;-58